sensor_id;sensor_type;location;lat;lon;timestamp;temperature;humidity
20558;DHT22;10437;48.156;11.530;2022-07-03T00:01:33;18.20;99.90
20558;DHT22;10437;48.156;11.530;2022-07-03T00:04:02;18.10;99.90
20558;DHT22;10437;48.156;11.530;2022-07-03T00:06:29;18.10;99.90
20558;DHT22;10437;48.156;11.530;2022-07-03T00:11:24;17.70;99.90
20558;DHT22;10437;48.156;11.530;2022-07-03T00:18:46;18.10;99.90
20558;DHT22;10437;48.156;11.530;2022-07-03T00:21:19;18.10;99.90
20558;DHT22;10437;48.156;11.530;2022-07-03T00:23:56;18.20;99.90
20558;DHT22;10437;48.156;11.530;2022-07-03T00:26:25;18.30;99.90
20558;DHT22;10437;48.156;11.530;2022-07-03T00:28:54;18.10;99.90
20558;DHT22;10437;48.156;11.530;2022-07-03T00:33:52;18.50;99.90
20558;DHT22;10437;48.156;11.530;2022-07-03T00:36:22;18.50;99.90
20558;DHT22;10437;48.156;11.530;2022-07-03T00:38:50;17.00;99.90
20558;DHT22;10437;48.156;11.530;2022-07-03T00:41:25;18.40;99.90
20558;DHT22;10437;48.156;11.530;2022-07-03T00:46:22;18.30;99.90
20558;DHT22;10437;48.156;11.530;2022-07-03T00:48:50;18.30;99.90
20558;DHT22;10437;48.156;11.530;2022-07-03T00:51:22;19.70;99.90
20558;DHT22;10437;48.156;11.530;2022-07-03T00:53:51;18.30;99.90
20558;DHT22;10437;48.156;11.530;2022-07-03T00:56:22;18.30;99.90
20558;DHT22;10437;48.156;11.530;2022-07-03T00:58:52;18.30;99.90
20558;DHT22;10437;48.156;11.530;2022-07-03T01:01:20;18.30;99.90
20558;DHT22;10437;48.156;11.530;2022-07-03T01:03:48;18.20;99.90
20558;DHT22;10437;48.156;11.530;2022-07-03T01:06:22;18.20;99.90
20558;DHT22;10437;48.156;11.530;2022-07-03T01:08:51;18.20;99.90
20558;DHT22;10437;48.156;11.530;2022-07-03T01:11:21;18.10;99.90
20558;DHT22;10437;48.156;11.530;2022-07-03T01:14:00;18.10;99.90
20558;DHT22;10437;48.156;11.530;2022-07-03T01:16:33;18.00;99.90
20558;DHT22;10437;48.156;11.530;2022-07-03T01:19:10;16.30;99.90
20558;DHT22;10437;48.156;11.530;2022-07-03T01:21:56;18.00;99.90
20558;DHT22;10437;48.156;11.530;2022-07-03T01:24:43;18.00;99.90
20558;DHT22;10437;48.156;11.530;2022-07-03T01:27:14;17.90;99.90
20558;DHT22;10437;48.156;11.530;2022-07-03T01:29:51;17.90;99.90
20558;DHT22;10437;48.156;11.530;2022-07-03T01:32:22;17.80;99.90
20558;DHT22;10437;48.156;11.530;2022-07-03T01:34:52;17.80;99.90
20558;DHT22;10437;48.156;11.530;2022-07-03T01:37:22;17.90;99.90
20558;DHT22;10437;48.156;11.530;2022-07-03T01:39:52;17.80;99.90
20558;DHT22;10437;48.156;11.530;2022-07-03T01:42:23;16.70;99.90
20558;DHT22;10437;48.156;11.530;2022-07-03T01:44:52;17.80;99.90
20558;DHT22;10437;48.156;11.530;2022-07-03T01:47:21;17.80;99.90
20558;DHT22;10437;48.156;11.530;2022-07-03T01:49:50;17.80;99.90
20558;DHT22;10437;48.156;11.530;2022-07-03T01:52:19;17.90;99.90
20558;DHT22;10437;48.156;11.530;2022-07-03T01:54:47;17.80;99.90
20558;DHT22;10437;48.156;11.530;2022-07-03T01:59:44;17.90;99.90
20558;DHT22;10437;48.156;11.530;2022-07-03T02:02:16;17.90;99.90
20558;DHT22;10437;48.156;11.530;2022-07-03T02:04:59;17.90;99.90
20558;DHT22;10437;48.156;11.530;2022-07-03T02:07:38;17.90;99.90
20558;DHT22;10437;48.156;11.530;2022-07-03T02:10:07;17.80;99.90
20558;DHT22;10437;48.156;11.530;2022-07-03T02:12:38;17.80;99.90
20558;DHT22;10437;48.156;11.530;2022-07-03T02:15:09;17.40;99.90
20558;DHT22;10437;48.156;11.530;2022-07-03T02:17:38;17.80;99.90
20558;DHT22;10437;48.156;11.530;2022-07-03T02:20:07;17.70;99.90
20558;DHT22;10437;48.156;11.530;2022-07-03T02:22:36;17.70;99.90
20558;DHT22;10437;48.156;11.530;2022-07-03T02:25:06;17.50;99.90
20558;DHT22;10437;48.156;11.530;2022-07-03T02:27:41;17.70;99.90
20558;DHT22;10437;48.156;11.530;2022-07-03T02:30:12;17.40;99.90
20558;DHT22;10437;48.156;11.530;2022-07-03T02:32:44;17.70;99.90
20558;DHT22;10437;48.156;11.530;2022-07-03T02:35:13;17.70;99.90
20558;DHT22;10437;48.156;11.530;2022-07-03T02:37:45;17.70;99.90
20558;DHT22;10437;48.156;11.530;2022-07-03T02:40:20;17.70;99.90
20558;DHT22;10437;48.156;11.530;2022-07-03T02:42:58;17.70;99.90
20558;DHT22;10437;48.156;11.530;2022-07-03T02:45:38;17.60;99.90
20558;DHT22;10437;48.156;11.530;2022-07-03T02:48:12;17.60;99.90
20558;DHT22;10437;48.156;11.530;2022-07-03T02:50:40;17.50;99.90
20558;DHT22;10437;48.156;11.530;2022-07-03T02:53:14;17.30;99.90
20558;DHT22;10437;48.156;11.530;2022-07-03T02:55:44;17.40;99.90
20558;DHT22;10437;48.156;11.530;2022-07-03T03:01:16;17.30;99.90
20558;DHT22;10437;48.156;11.530;2022-07-03T03:03:53;17.40;99.90
20558;DHT22;10437;48.156;11.530;2022-07-03T03:06:27;17.40;99.90
20558;DHT22;10437;48.156;11.530;2022-07-03T03:08:59;17.50;99.90
20558;DHT22;10437;48.156;11.530;2022-07-03T03:11:32;17.30;99.90
20558;DHT22;10437;48.156;11.530;2022-07-03T03:14:00;17.40;99.90
20558;DHT22;10437;48.156;11.530;2022-07-03T03:16:29;17.10;99.90
20558;DHT22;10437;48.156;11.530;2022-07-03T03:21:25;17.40;99.90
20558;DHT22;10437;48.156;11.530;2022-07-03T03:26:21;19.20;99.90
20558;DHT22;10437;48.156;11.530;2022-07-03T03:28:49;17.40;99.90
20558;DHT22;10437;48.156;11.530;2022-07-03T03:31:16;17.30;99.90
20558;DHT22;10437;48.156;11.530;2022-07-03T03:33:47;17.30;99.90
20558;DHT22;10437;48.156;11.530;2022-07-03T03:36:17;17.20;99.90
20558;DHT22;10437;48.156;11.530;2022-07-03T03:38:44;17.20;99.90
20558;DHT22;10437;48.156;11.530;2022-07-03T03:41:11;17.20;99.90
20558;DHT22;10437;48.156;11.530;2022-07-03T03:48:33;17.10;99.90
20558;DHT22;10437;48.156;11.530;2022-07-03T03:51:02;17.20;99.90
20558;DHT22;10437;48.156;11.530;2022-07-03T03:56:02;17.20;99.90
20558;DHT22;10437;48.156;11.530;2022-07-03T03:58:30;17.30;99.90
20558;DHT22;10437;48.156;11.530;2022-07-03T04:03:25;17.30;99.90
20558;DHT22;10437;48.156;11.530;2022-07-03T04:05:53;17.30;99.90
20558;DHT22;10437;48.156;11.530;2022-07-03T04:08:22;17.30;99.90
20558;DHT22;10437;48.156;11.530;2022-07-03T04:13:17;17.40;99.90
20558;DHT22;10437;48.156;11.530;2022-07-03T04:15:45;17.20;99.90
20558;DHT22;10437;48.156;11.530;2022-07-03T04:20:40;17.20;99.90
20558;DHT22;10437;48.156;11.530;2022-07-03T04:25:35;17.10;99.90
20558;DHT22;10437;48.156;11.530;2022-07-03T04:28:02;17.30;99.90
20558;DHT22;10437;48.156;11.530;2022-07-03T04:42:46;17.60;99.90
20558;DHT22;10437;48.156;11.530;2022-07-03T04:45:13;17.70;99.90
20558;DHT22;10437;48.156;11.530;2022-07-03T04:59:57;18.10;99.90
20558;DHT22;10437;48.156;11.530;2022-07-03T05:09:46;18.40;99.90
20558;DHT22;10437;48.156;11.530;2022-07-03T05:17:08;18.70;99.90
20558;DHT22;10437;48.156;11.530;2022-07-03T05:19:37;18.60;99.90
20558;DHT22;10437;48.156;11.530;2022-07-03T05:22:04;18.80;99.90
20558;DHT22;10437;48.156;11.530;2022-07-03T05:34:20;19.00;99.90
20558;DHT22;10437;48.156;11.530;2022-07-03T05:42:00;19.40;99.90
20558;DHT22;10437;48.156;11.530;2022-07-03T05:49:23;19.70;99.90
20558;DHT22;10437;48.156;11.530;2022-07-03T05:59:11;20.20;99.90
20558;DHT22;10437;48.156;11.530;2022-07-03T06:06:33;20.40;99.90
20558;DHT22;10437;48.156;11.530;2022-07-03T06:23:44;21.60;99.90
20558;DHT22;10437;48.156;11.530;2022-07-03T06:40:55;21.60;99.90
20558;DHT22;10437;48.156;11.530;2022-07-03T06:43:22;21.80;99.90
20558;DHT22;10437;48.156;11.530;2022-07-03T06:50:43;21.70;99.90
20558;DHT22;10437;48.156;11.530;2022-07-03T06:58:05;22.20;99.90
20558;DHT22;10437;48.156;11.530;2022-07-03T07:15:17;23.20;99.90
20558;DHT22;10437;48.156;11.530;2022-07-03T07:17:44;23.50;99.90
20558;DHT22;10437;48.156;11.530;2022-07-03T07:22:38;24.10;99.90
20558;DHT22;10437;48.156;11.530;2022-07-03T07:32:28;25.00;99.90
20558;DHT22;10437;48.156;11.530;2022-07-03T07:42:17;25.80;99.90
20558;DHT22;10437;48.156;11.530;2022-07-03T07:49:40;26.40;96.70
20558;DHT22;10437;48.156;11.530;2022-07-03T07:54:34;26.90;99.90
20558;DHT22;10437;48.156;11.530;2022-07-03T08:04:42;27.10;95.70
20558;DHT22;10437;48.156;11.530;2022-07-03T08:19:43;28.00;97.40
20558;DHT22;10437;48.156;11.530;2022-07-03T08:22:10;27.80;93.10
20558;DHT22;10437;48.156;11.530;2022-07-03T08:27:04;28.40;96.30
20558;DHT22;10437;48.156;11.530;2022-07-03T08:29:31;28.50;92.80
20558;DHT22;10437;48.156;11.530;2022-07-03T08:31:58;28.90;99.20
20558;DHT22;10437;48.156;11.530;2022-07-03T08:36:54;29.60;91.10
20558;DHT22;10437;48.156;11.530;2022-07-03T08:39:20;29.10;94.10
20558;DHT22;10437;48.156;11.530;2022-07-03T08:41:48;29.40;87.40
20558;DHT22;10437;48.156;11.530;2022-07-03T08:46:45;30.00;90.20
20558;DHT22;10437;48.156;11.530;2022-07-03T08:49:14;28.80;82.90
20558;DHT22;10437;48.156;11.530;2022-07-03T08:54:09;30.00;81.00
20558;DHT22;10437;48.156;11.530;2022-07-03T08:56:37;30.00;80.00
20558;DHT22;10437;48.156;11.530;2022-07-03T08:59:05;29.80;78.60
20558;DHT22;10437;48.156;11.530;2022-07-03T09:01:33;30.30;77.60
20558;DHT22;10437;48.156;11.530;2022-07-03T09:04:05;29.80;80.30
20558;DHT22;10437;48.156;11.530;2022-07-03T09:09:01;30.10;75.60
20558;DHT22;10437;48.156;11.530;2022-07-03T09:11:29;30.10;75.60
20558;DHT22;10437;48.156;11.530;2022-07-03T09:13:56;30.20;83.40
20558;DHT22;10437;48.156;11.530;2022-07-03T09:23:46;30.00;74.50
20558;DHT22;10437;48.156;11.530;2022-07-03T09:26:15;30.20;72.70
20558;DHT22;10437;48.156;11.530;2022-07-03T09:28:48;29.90;71.40
20558;DHT22;10437;48.156;11.530;2022-07-03T09:31:18;30.00;72.50
20558;DHT22;10437;48.156;11.530;2022-07-03T09:33:56;30.40;73.00
20558;DHT22;10437;48.156;11.530;2022-07-03T09:36:37;30.30;70.60
20558;DHT22;10437;48.156;11.530;2022-07-03T09:39:14;30.20;70.60
20558;DHT22;10437;48.156;11.530;2022-07-03T09:41:53;30.20;68.50
20558;DHT22;10437;48.156;11.530;2022-07-03T09:47:15;29.80;68.20
20558;DHT22;10437;48.156;11.530;2022-07-03T09:49:46;30.00;68.70
20558;DHT22;10437;48.156;11.530;2022-07-03T09:52:26;29.80;71.50
20558;DHT22;10437;48.156;11.530;2022-07-03T09:57:21;29.90;72.00
20558;DHT22;10437;48.156;11.530;2022-07-03T10:00:08;30.10;71.30
20558;DHT22;10437;48.156;11.530;2022-07-03T10:02:36;30.10;73.60
20558;DHT22;10437;48.156;11.530;2022-07-03T10:05:17;30.80;80.90
20558;DHT22;10437;48.156;11.530;2022-07-03T10:07:54;30.80;71.70
20558;DHT22;10437;48.156;11.530;2022-07-03T10:10:24;30.90;70.50
20558;DHT22;10437;48.156;11.530;2022-07-03T10:12:52;30.90;69.80
20558;DHT22;10437;48.156;11.530;2022-07-03T10:15:22;31.00;70.00
20558;DHT22;10437;48.156;11.530;2022-07-03T10:17:51;31.10;70.20
20558;DHT22;10437;48.156;11.530;2022-07-03T10:20:24;31.10;70.10
20558;DHT22;10437;48.156;11.530;2022-07-03T10:22:51;31.30;68.60
20558;DHT22;10437;48.156;11.530;2022-07-03T10:30:15;31.40;67.00
20558;DHT22;10437;48.156;11.530;2022-07-03T10:32:44;31.20;77.80
20558;DHT22;10437;48.156;11.530;2022-07-03T10:35:13;30.80;67.00
20558;DHT22;10437;48.156;11.530;2022-07-03T10:37:52;30.80;66.80
20558;DHT22;10437;48.156;11.530;2022-07-03T10:40:31;31.10;66.30
20558;DHT22;10437;48.156;11.530;2022-07-03T10:43:25;31.20;65.80
20558;DHT22;10437;48.156;11.530;2022-07-03T10:46:12;31.50;65.10
20558;DHT22;10437;48.156;11.530;2022-07-03T10:48:59;31.40;61.90
20558;DHT22;10437;48.156;11.530;2022-07-03T10:51:30;31.40;62.10
20558;DHT22;10437;48.156;11.530;2022-07-03T10:54:16;31.30;61.70
20558;DHT22;10437;48.156;11.530;2022-07-03T10:57:05;31.90;73.90
20558;DHT22;10437;48.156;11.530;2022-07-03T10:59:58;31.60;60.20
20558;DHT22;10437;48.156;11.530;2022-07-03T11:02:28;31.40;60.60
20558;DHT22;10437;48.156;11.530;2022-07-03T11:05:17;31.30;58.40
20558;DHT22;10437;48.156;11.530;2022-07-03T11:08:10;32.20;59.80
20558;DHT22;10437;48.156;11.530;2022-07-03T11:10:41;31.60;59.30
20558;DHT22;10437;48.156;11.530;2022-07-03T11:13:17;31.70;59.10
20558;DHT22;10437;48.156;11.530;2022-07-03T11:15:49;31.80;58.60
20558;DHT22;10437;48.156;11.530;2022-07-03T11:18:32;31.80;55.70
20558;DHT22;10437;48.156;11.530;2022-07-03T11:29:26;31.90;56.40
20558;DHT22;10437;48.156;11.530;2022-07-03T11:36:49;31.60;55.70
20558;DHT22;10437;48.156;11.530;2022-07-03T11:39:18;31.70;56.50
20558;DHT22;10437;48.156;11.530;2022-07-03T11:41:46;31.80;55.60
20558;DHT22;10437;48.156;11.530;2022-07-03T11:44:18;31.90;53.20
20558;DHT22;10437;48.156;11.530;2022-07-03T11:46:51;31.50;56.90
20558;DHT22;10437;48.156;11.530;2022-07-03T11:49:20;31.80;54.60
20558;DHT22;10437;48.156;11.530;2022-07-03T11:51:57;32.00;54.10
20558;DHT22;10437;48.156;11.530;2022-07-03T11:54:25;31.70;54.60
20558;DHT22;10437;48.156;11.530;2022-07-03T12:04:15;31.80;53.30
20558;DHT22;10437;48.156;11.530;2022-07-03T12:06:44;30.30;51.90
20558;DHT22;10437;48.156;11.530;2022-07-03T12:09:18;31.60;53.00
20558;DHT22;10437;48.156;11.530;2022-07-03T12:11:55;31.70;52.60
20558;DHT22;10437;48.156;11.530;2022-07-03T12:14:41;31.90;54.40
20558;DHT22;10437;48.156;11.530;2022-07-03T12:17:10;31.80;54.20
20558;DHT22;10437;48.156;11.530;2022-07-03T12:19:38;31.10;55.90
20558;DHT22;10437;48.156;11.530;2022-07-03T12:22:10;31.70;63.70
20558;DHT22;10437;48.156;11.530;2022-07-03T12:24:39;31.90;55.10
20558;DHT22;10437;48.156;11.530;2022-07-03T12:29:34;31.70;54.10
20558;DHT22;10437;48.156;11.530;2022-07-03T12:32:08;31.90;54.00
20558;DHT22;10437;48.156;11.530;2022-07-03T12:34:37;32.00;66.00
20558;DHT22;10437;48.156;11.530;2022-07-03T12:39:43;31.60;52.60
20558;DHT22;10437;48.156;11.530;2022-07-03T12:42:17;31.60;53.80
20558;DHT22;10437;48.156;11.530;2022-07-03T12:44:55;31.50;55.20
20558;DHT22;10437;48.156;11.530;2022-07-03T12:54:50;31.60;55.10
20558;DHT22;10437;48.156;11.530;2022-07-03T13:00:04;31.70;56.50
20558;DHT22;10437;48.156;11.530;2022-07-03T13:02:32;31.50;58.80
20558;DHT22;10437;48.156;11.530;2022-07-03T13:07:29;31.80;56.00
20558;DHT22;10437;48.156;11.530;2022-07-03T13:09:59;31.70;63.70
20558;DHT22;10437;48.156;11.530;2022-07-03T13:14:57;31.40;57.80
20558;DHT22;10437;48.156;11.530;2022-07-03T13:17:50;31.50;64.00
20558;DHT22;10437;48.156;11.530;2022-07-03T13:20:17;30.30;61.80
20558;DHT22;10437;48.156;11.530;2022-07-03T13:25:13;31.30;63.00
20558;DHT22;10437;48.156;11.530;2022-07-03T13:30:09;31.20;62.40
20558;DHT22;10437;48.156;11.530;2022-07-03T13:42:26;31.40;63.90
20558;DHT22;10437;48.156;11.530;2022-07-03T13:59:37;31.10;67.60
20558;DHT22;10437;48.156;11.530;2022-07-03T14:16:48;31.30;60.70
20558;DHT22;10437;48.156;11.530;2022-07-03T14:19:15;31.00;65.40
20558;DHT22;10437;48.156;11.530;2022-07-03T14:32:07;32.50;60.40
20558;DHT22;10437;48.156;11.530;2022-07-03T14:44:41;30.20;73.20
20558;DHT22;10437;48.156;11.530;2022-07-03T14:47:09;30.70;60.70
20558;DHT22;10437;48.156;11.530;2022-07-03T14:52:04;30.60;61.40
20558;DHT22;10437;48.156;11.530;2022-07-03T14:57:00;30.60;59.90
20558;DHT22;10437;48.156;11.530;2022-07-03T14:59:38;30.50;59.90
20558;DHT22;10437;48.156;11.530;2022-07-03T15:02:14;30.40;60.30
20558;DHT22;10437;48.156;11.530;2022-07-03T15:04:55;30.40;60.20
20558;DHT22;10437;48.156;11.530;2022-07-03T15:10:04;30.30;60.10
20558;DHT22;10437;48.156;11.530;2022-07-03T15:12:33;30.30;66.70
20558;DHT22;10437;48.156;11.530;2022-07-03T15:15:01;30.30;60.40
20558;DHT22;10437;48.156;11.530;2022-07-03T15:17:31;30.30;60.40
20558;DHT22;10437;48.156;11.530;2022-07-03T15:20:02;30.30;60.30
20558;DHT22;10437;48.156;11.530;2022-07-03T15:22:30;30.10;59.40
20558;DHT22;10437;48.156;11.530;2022-07-03T15:24:58;30.80;63.70
20558;DHT22;10437;48.156;11.530;2022-07-03T15:29:52;29.90;66.80
20558;DHT22;10437;48.156;11.530;2022-07-03T15:34:48;30.30;61.70
20558;DHT22;10437;48.156;11.530;2022-07-03T15:37:27;30.70;66.60
20558;DHT22;10437;48.156;11.530;2022-07-03T15:40:00;30.30;70.50
20558;DHT22;10437;48.156;11.530;2022-07-03T15:42:38;30.20;61.40
20558;DHT22;10437;48.156;11.530;2022-07-03T15:45:10;32.40;64.10
20558;DHT22;10437;48.156;11.530;2022-07-03T15:47:45;30.30;61.70
20558;DHT22;10437;48.156;11.530;2022-07-03T15:50:28;30.00;61.10
20558;DHT22;10437;48.156;11.530;2022-07-03T15:53:00;29.90;60.50
20558;DHT22;10437;48.156;11.530;2022-07-03T15:55:31;30.00;67.10
20558;DHT22;10437;48.156;11.530;2022-07-03T15:58:03;30.00;62.10
20558;DHT22;10437;48.156;11.530;2022-07-03T16:00:34;30.20;61.20
20558;DHT22;10437;48.156;11.530;2022-07-03T16:03:10;30.20;67.50
20558;DHT22;10437;48.156;11.530;2022-07-03T16:05:40;29.90;61.70
20558;DHT22;10437;48.156;11.530;2022-07-03T16:08:09;30.00;62.40
20558;DHT22;10437;48.156;11.530;2022-07-03T16:10:37;29.20;61.30
20558;DHT22;10437;48.156;11.530;2022-07-03T16:15:34;29.90;61.80
20558;DHT22;10437;48.156;11.530;2022-07-03T16:18:02;29.90;66.60
20558;DHT22;10437;48.156;11.530;2022-07-03T16:20:30;29.40;67.70
20558;DHT22;10437;48.156;11.530;2022-07-03T16:23:03;29.20;70.10
20558;DHT22;10437;48.156;11.530;2022-07-03T16:25:31;29.90;90.40
20558;DHT22;10437;48.156;11.530;2022-07-03T16:28:00;29.80;68.90
20558;DHT22;10437;48.156;11.530;2022-07-03T16:30:28;29.60;60.50
20558;DHT22;10437;48.156;11.530;2022-07-03T16:35:27;29.60;63.10
20558;DHT22;10437;48.156;11.530;2022-07-03T16:38:01;29.50;63.40
20558;DHT22;10437;48.156;11.530;2022-07-03T16:40:29;29.40;63.20
20558;DHT22;10437;48.156;11.530;2022-07-03T16:42:57;29.80;90.50
20558;DHT22;10437;48.156;11.530;2022-07-03T16:45:28;29.00;67.20
20558;DHT22;10437;48.156;11.530;2022-07-03T16:48:00;29.50;63.00
20558;DHT22;10437;48.156;11.530;2022-07-03T16:55:27;29.30;63.90
20558;DHT22;10437;48.156;11.530;2022-07-03T16:57:56;29.40;64.00
20558;DHT22;10437;48.156;11.530;2022-07-03T17:00:26;29.20;64.20
20558;DHT22;10437;48.156;11.530;2022-07-03T17:02:54;29.00;64.00
20558;DHT22;10437;48.156;11.530;2022-07-03T17:05:23;29.40;72.00
20558;DHT22;10437;48.156;11.530;2022-07-03T17:07:53;29.60;66.20
20558;DHT22;10437;48.156;11.530;2022-07-03T17:10:22;29.10;63.50
20558;DHT22;10437;48.156;11.530;2022-07-03T17:12:53;29.00;64.60
20558;DHT22;10437;48.156;11.530;2022-07-03T17:15:22;29.10;65.00
20558;DHT22;10437;48.156;11.530;2022-07-03T17:17:54;28.60;70.60
20558;DHT22;10437;48.156;11.530;2022-07-03T17:20:24;28.50;65.20
20558;DHT22;10437;48.156;11.530;2022-07-03T17:22:54;29.10;90.90
20558;DHT22;10437;48.156;11.530;2022-07-03T17:25:24;28.80;65.50
20558;DHT22;10437;48.156;11.530;2022-07-03T17:27:57;28.50;66.20
20558;DHT22;10437;48.156;11.530;2022-07-03T17:30:30;28.70;66.20
20558;DHT22;10437;48.156;11.530;2022-07-03T17:33:01;28.50;76.60
20558;DHT22;10437;48.156;11.530;2022-07-03T17:35:31;28.50;65.50
20558;DHT22;10437;48.156;11.530;2022-07-03T17:38:00;28.50;64.10
20558;DHT22;10437;48.156;11.530;2022-07-03T17:40:27;28.60;66.20
20558;DHT22;10437;48.156;11.530;2022-07-03T17:42:56;28.70;84.60
20558;DHT22;10437;48.156;11.530;2022-07-03T17:47:51;28.30;67.40
20558;DHT22;10437;48.156;11.530;2022-07-03T17:50:18;28.20;70.90
20558;DHT22;10437;48.156;11.530;2022-07-03T17:52:47;28.20;67.30
20558;DHT22;10437;48.156;11.530;2022-07-03T18:00:14;28.10;68.30
20558;DHT22;10437;48.156;11.530;2022-07-03T18:02:42;27.90;68.60
20558;DHT22;10437;48.156;11.530;2022-07-03T18:05:11;28.00;81.50
20558;DHT22;10437;48.156;11.530;2022-07-03T18:07:46;27.90;65.40
20558;DHT22;10437;48.156;11.530;2022-07-03T18:10:17;28.30;70.60
20558;DHT22;10437;48.156;11.530;2022-07-03T18:12:50;27.80;70.30
20558;DHT22;10437;48.156;11.530;2022-07-03T18:15:28;27.70;71.00
20558;DHT22;10437;48.156;11.530;2022-07-03T18:17:59;27.70;71.70
20558;DHT22;10437;48.156;11.530;2022-07-03T18:20:28;27.60;72.50
20558;DHT22;10437;48.156;11.530;2022-07-03T18:22:59;27.50;72.40
20558;DHT22;10437;48.156;11.530;2022-07-03T18:25:29;27.50;73.40
20558;DHT22;10437;48.156;11.530;2022-07-03T18:27:56;26.80;77.40
20558;DHT22;10437;48.156;11.530;2022-07-03T18:30:26;27.20;74.10
20558;DHT22;10437;48.156;11.530;2022-07-03T18:35:21;27.10;72.10
20558;DHT22;10437;48.156;11.530;2022-07-03T18:37:48;27.30;94.50
20558;DHT22;10437;48.156;11.530;2022-07-03T18:42:44;26.70;74.80
20558;DHT22;10437;48.156;11.530;2022-07-03T18:45:12;26.90;75.00
20558;DHT22;10437;48.156;11.530;2022-07-03T18:47:41;26.80;75.70
20558;DHT22;10437;48.156;11.530;2022-07-03T18:50:08;26.90;83.80
20558;DHT22;10437;48.156;11.530;2022-07-03T18:52:42;26.60;71.90
20558;DHT22;10437;48.156;11.530;2022-07-03T18:55:19;26.70;76.90
20558;DHT22;10437;48.156;11.530;2022-07-03T18:57:56;26.70;96.30
20558;DHT22;10437;48.156;11.530;2022-07-03T19:00:29;26.70;81.90
20558;DHT22;10437;48.156;11.530;2022-07-03T19:03:00;26.40;77.10
20558;DHT22;10437;48.156;11.530;2022-07-03T19:05:35;26.50;78.10
20558;DHT22;10437;48.156;11.530;2022-07-03T19:08:04;26.00;77.40
20558;DHT22;10437;48.156;11.530;2022-07-03T19:10:35;26.20;78.00
20558;DHT22;10437;48.156;11.530;2022-07-03T19:13:05;25.90;78.80
20558;DHT22;10437;48.156;11.530;2022-07-03T19:15:33;26.00;79.20
20558;DHT22;10437;48.156;11.530;2022-07-03T19:18:04;25.90;79.80
20558;DHT22;10437;48.156;11.530;2022-07-03T19:20:32;26.40;81.80
20558;DHT22;10437;48.156;11.530;2022-07-03T19:23:00;26.30;79.50
20558;DHT22;10437;48.156;11.530;2022-07-03T19:25:27;25.80;81.50
20558;DHT22;10437;48.156;11.530;2022-07-03T19:35:18;23.90;81.80
20558;DHT22;10437;48.156;11.530;2022-07-03T19:40:12;25.80;83.20
20558;DHT22;10437;48.156;11.530;2022-07-03T19:45:09;25.50;84.50
20558;DHT22;10437;48.156;11.530;2022-07-03T19:50:04;25.30;85.20
20558;DHT22;10437;48.156;11.530;2022-07-03T19:52:35;25.40;85.50
20558;DHT22;10437;48.156;11.530;2022-07-03T19:55:03;25.30;84.90
20558;DHT22;10437;48.156;11.530;2022-07-03T19:57:32;25.60;92.90
20558;DHT22;10437;48.156;11.530;2022-07-03T20:02:28;25.10;90.20
20558;DHT22;10437;48.156;11.530;2022-07-03T20:07:22;24.20;85.00
20558;DHT22;10437;48.156;11.530;2022-07-03T20:12:20;24.70;95.00
20558;DHT22;10437;48.156;11.530;2022-07-03T20:19:42;24.90;88.00
20558;DHT22;10437;48.156;11.530;2022-07-03T20:27:09;24.80;90.40
20558;DHT22;10437;48.156;11.530;2022-07-03T20:29:38;24.60;90.40
20558;DHT22;10437;48.156;11.530;2022-07-03T20:32:08;24.60;90.70
20558;DHT22;10437;48.156;11.530;2022-07-03T20:34:35;24.60;90.40
20558;DHT22;10437;48.156;11.530;2022-07-03T20:39:30;24.40;90.50
20558;DHT22;10437;48.156;11.530;2022-07-03T20:41:59;24.50;91.20
20558;DHT22;10437;48.156;11.530;2022-07-03T20:44:27;24.30;97.60
20558;DHT22;10437;48.156;11.530;2022-07-03T20:46:55;24.70;99.50
20558;DHT22;10437;48.156;11.530;2022-07-03T20:49:22;24.30;94.40
20558;DHT22;10437;48.156;11.530;2022-07-03T21:01:38;24.30;92.50
20558;DHT22;10437;48.156;11.530;2022-07-03T21:06:34;24.00;91.90
20558;DHT22;10437;48.156;11.530;2022-07-03T21:09:03;24.30;98.00
20558;DHT22;10437;48.156;11.530;2022-07-03T21:11:32;24.30;93.00
20558;DHT22;10437;48.156;11.530;2022-07-03T21:14:01;24.20;93.20
20558;DHT22;10437;48.156;11.530;2022-07-03T21:18:59;24.20;92.40
20558;DHT22;10437;48.156;11.530;2022-07-03T21:21:27;24.10;93.50
20558;DHT22;10437;48.156;11.530;2022-07-03T21:23:54;23.60;99.00
20558;DHT22;10437;48.156;11.530;2022-07-03T21:26:21;24.00;93.90
20558;DHT22;10437;48.156;11.530;2022-07-03T21:28:48;23.70;95.90
20558;DHT22;10437;48.156;11.530;2022-07-03T21:36:11;23.70;95.40
20558;DHT22;10437;48.156;11.530;2022-07-03T21:38:38;23.90;98.80
20558;DHT22;10437;48.156;11.530;2022-07-03T21:41:05;23.80;96.30
20558;DHT22;10437;48.156;11.530;2022-07-03T21:53:22;23.60;96.40
20558;DHT22;10437;48.156;11.530;2022-07-03T22:00:44;23.60;96.40
20558;DHT22;10437;48.156;11.530;2022-07-03T22:05:38;23.40;95.80
20558;DHT22;10437;48.156;11.530;2022-07-03T22:08:06;23.50;99.90
20558;DHT22;10437;48.156;11.530;2022-07-03T22:13:03;23.40;96.40
20558;DHT22;10437;48.156;11.530;2022-07-03T22:25:19;23.30;99.90
20558;DHT22;10437;48.156;11.530;2022-07-03T22:27:47;23.20;99.20
20558;DHT22;10437;48.156;11.530;2022-07-03T22:32:43;23.10;99.10
20558;DHT22;10437;48.156;11.530;2022-07-03T22:35:11;23.20;99.90
20558;DHT22;10437;48.156;11.530;2022-07-03T22:37:39;22.90;99.20
20558;DHT22;10437;48.156;11.530;2022-07-03T22:40:07;23.10;99.30
20558;DHT22;10437;48.156;11.530;2022-07-03T22:45:03;23.00;99.90
20558;DHT22;10437;48.156;11.530;2022-07-03T22:47:31;23.50;99.90
20558;DHT22;10437;48.156;11.530;2022-07-03T22:49:58;22.70;99.90
20558;DHT22;10437;48.156;11.530;2022-07-03T23:02:15;23.10;99.70
20558;DHT22;10437;48.156;11.530;2022-07-03T23:07:09;23.00;99.10
20558;DHT22;10437;48.156;11.530;2022-07-03T23:09:37;22.80;99.90
20558;DHT22;10437;48.156;11.530;2022-07-03T23:12:04;23.50;99.90
20558;DHT22;10437;48.156;11.530;2022-07-03T23:19:31;23.10;99.90
20558;DHT22;10437;48.156;11.530;2022-07-03T23:36:42;22.80;99.90
20558;DHT22;10437;48.156;11.530;2022-07-03T23:51:44;22.60;99.90
20558;DHT22;10437;48.156;11.530;2022-07-03T23:56:38;22.60;99.90
